createdAt,value
2016-03-05T00:00:36.272Z,986.1
2016-03-05T00:01:36.024Z,986.09
2016-03-05T00:02:36.012Z,986.09
2016-03-05T00:03:35.998Z,986.12
2016-03-05T00:04:36.173Z,986.11
2016-03-05T00:05:35.941Z,986.15
2016-03-05T00:06:35.913Z,986.1
2016-03-05T00:07:35.900Z,986.08
2016-03-05T00:08:35.871Z,986.02
2016-03-05T00:09:35.858Z,985.94
2016-03-05T00:10:35.829Z,985.85
2016-03-05T00:11:35.801Z,985.79
2016-03-05T00:12:35.789Z,985.7
2016-03-05T00:13:35.760Z,985.68
2016-03-05T00:14:35.731Z,985.73
2016-03-05T00:15:35.718Z,985.8
2016-03-05T00:16:35.720Z,985.82
2016-03-05T00:17:35.693Z,985.84
2016-03-05T00:18:35.664Z,985.8
2016-03-05T00:19:35.635Z,985.79
2016-03-05T00:20:35.600Z,985.71
2016-03-05T00:21:35.560Z,985.66
2016-03-05T00:22:35.536Z,985.65
2016-03-05T00:23:35.495Z,985.59
2016-03-05T00:24:35.455Z,985.58
2016-03-05T00:25:35.451Z,985.54
2016-03-05T00:26:35.402Z,985.46
2016-03-05T00:27:35.385Z,985.41
2016-03-05T00:28:35.356Z,985.36
2016-03-05T00:29:35.317Z,985.31
2016-03-05T00:30:35.302Z,985.26
2016-03-05T00:31:35.273Z,985.22
2016-03-05T00:32:35.242Z,985.14
2016-03-05T00:33:35.229Z,985.17
2016-03-05T00:34:35.230Z,985.16
2016-03-05T00:35:35.184Z,985.18
2016-03-05T00:36:35.155Z,985.24
2016-03-05T00:37:35.126Z,985.31
2016-03-05T00:38:35.111Z,985.38
2016-03-05T00:39:35.082Z,985.44
2016-03-05T00:40:35.068Z,985.48
2016-03-05T00:41:35.041Z,985.48
2016-03-05T00:42:35.013Z,985.47
2016-03-05T00:43:34.999Z,985.49
2016-03-05T00:44:34.971Z,985.51
2016-03-05T00:45:34.989Z,985.51
2016-03-05T00:46:34.929Z,985.57
2016-03-05T00:47:34.900Z,985.55
2016-03-05T00:48:34.888Z,985.53
2016-03-05T00:49:34.859Z,985.42
2016-03-05T00:50:34.831Z,985.43
2016-03-05T00:51:34.817Z,985.36
2016-03-05T00:52:34.789Z,985.39
2016-03-05T00:53:34.775Z,985.37
2016-03-05T00:54:34.748Z,985.35
2016-03-05T00:55:34.720Z,985.38
2016-03-05T00:56:34.706Z,985.39
2016-03-05T00:57:34.678Z,985.39
2016-03-05T00:58:34.649Z,985.39
2016-03-05T00:59:34.636Z,985.4
2016-03-05T01:00:34.607Z,985.38
2016-03-05T01:01:34.704Z,985.37
2016-03-05T01:02:34.567Z,985.42
2016-03-05T01:03:34.538Z,985.38
2016-03-05T01:04:34.525Z,985.39
2016-03-05T01:05:34.496Z,985.43
2016-03-05T01:06:34.468Z,985.43
2016-03-05T01:07:34.470Z,985.44
2016-03-05T01:08:34.427Z,985.49
2016-03-05T01:09:34.397Z,985.49
2016-03-05T01:10:34.385Z,985.48
2016-03-05T01:11:34.356Z,985.47
2016-03-05T01:12:34.343Z,985.5
2016-03-05T01:13:34.314Z,985.51
2016-03-05T01:14:34.285Z,985.52
2016-03-05T01:15:34.273Z,985.56
2016-03-05T01:16:34.245Z,985.58
2016-03-05T01:17:34.216Z,985.6
2016-03-05T01:18:34.203Z,985.61
2016-03-05T01:19:34.174Z,985.64
2016-03-05T01:20:34.161Z,985.61
2016-03-05T01:21:34.133Z,985.61
2016-03-05T01:22:34.103Z,985.64
2016-03-05T01:23:34.092Z,985.62
2016-03-05T01:24:34.063Z,985.6
2016-03-05T01:25:34.065Z,985.6
2016-03-05T01:26:34.021Z,985.63
2016-03-05T01:27:33.992Z,985.63
2016-03-05T01:28:33.964Z,985.61
2016-03-05T01:29:33.951Z,985.6
2016-03-05T01:30:33.922Z,985.55
2016-03-05T01:31:33.894Z,985.58
2016-03-05T01:32:33.913Z,985.55
2016-03-05T01:33:33.853Z,985.51
2016-03-05T01:34:33.824Z,985.52
2016-03-05T01:35:33.810Z,985.53
2016-03-05T01:36:33.782Z,985.51
2016-03-05T01:37:33.755Z,985.54
2016-03-05T01:38:33.741Z,985.53
2016-03-05T01:39:33.713Z,985.59
2016-03-05T01:40:33.699Z,985.63
2016-03-05T01:41:33.671Z,985.61
2016-03-05T01:42:33.642Z,985.57
2016-03-05T01:43:33.645Z,985.52
2016-03-05T01:44:33.601Z,985.49
2016-03-05T01:45:33.570Z,985.43
2016-03-05T01:46:33.557Z,985.39
2016-03-05T01:47:33.529Z,985.39
2016-03-05T01:48:33.515Z,985.45
2016-03-05T01:49:33.487Z,985.45
2016-03-05T01:50:33.458Z,985.43
2016-03-05T01:51:33.429Z,985.43
2016-03-05T01:52:33.416Z,985.37
2016-03-05T01:53:33.388Z,985.36
2016-03-05T01:54:33.376Z,985.29
2016-03-05T01:55:33.347Z,985.22
2016-03-05T01:56:33.317Z,985.21
2016-03-05T01:57:33.289Z,985.19
2016-03-05T01:58:33.276Z,985.16
2016-03-05T01:59:33.248Z,985.21
2016-03-05T02:00:33.235Z,985.2
2016-03-05T02:01:33.254Z,985.19
2016-03-05T02:02:33.178Z,985.16
2016-03-05T02:03:33.164Z,985.19
2016-03-05T02:04:33.136Z,985.21
2016-03-05T02:05:33.107Z,985.29
2016-03-05T02:06:33.095Z,985.31
2016-03-05T02:07:33.067Z,985.38
2016-03-05T02:08:33.038Z,985.34
2016-03-05T02:09:33.025Z,985.32
2016-03-05T02:10:33.012Z,985.26
2016-03-05T02:11:32.983Z,985.25
2016-03-05T02:12:32.970Z,985.22
2016-03-05T02:13:32.926Z,985.17
2016-03-05T02:14:32.899Z,985.19
2016-03-05T02:15:32.885Z,985.17
2016-03-05T02:16:32.861Z,985.15
2016-03-05T02:17:32.831Z,985.17
2016-03-05T02:18:32.819Z,985.17
2016-03-05T02:19:32.790Z,985.14
2016-03-05T02:20:32.761Z,985.18
2016-03-05T02:21:32.748Z,985.16
2016-03-05T02:22:32.719Z,985.19
2016-03-05T02:23:32.692Z,985.16
2016-03-05T02:24:32.679Z,985.13
2016-03-05T02:25:32.650Z,985.13
2016-03-05T02:26:32.621Z,985.1
2016-03-05T02:27:32.608Z,985.11
2016-03-05T02:28:32.579Z,985.06
2016-03-05T02:29:32.551Z,985.03
2016-03-05T02:30:32.538Z,985
2016-03-05T02:31:32.510Z,985.01
2016-03-05T02:32:32.512Z,984.95
2016-03-05T02:33:32.468Z,985.01
2016-03-05T02:34:32.440Z,985.03
2016-03-05T02:35:32.427Z,985.01
2016-03-05T02:36:32.414Z,985.09
2016-03-05T02:37:32.370Z,985.08
2016-03-05T02:38:32.357Z,985.17
2016-03-05T02:39:32.328Z,985.29
2016-03-05T02:40:32.315Z,985.34
2016-03-05T02:41:32.270Z,985.43
2016-03-05T02:42:32.258Z,985.44
2016-03-05T02:43:32.230Z,985.44
2016-03-05T02:44:32.217Z,985.44
2016-03-05T02:45:32.189Z,985.4
2016-03-05T02:46:32.159Z,985.36
2016-03-05T02:47:32.131Z,985.35
2016-03-05T02:48:32.118Z,985.35
2016-03-05T02:49:32.089Z,985.33
2016-03-05T02:50:32.107Z,985.3
2016-03-05T02:51:32.048Z,985.31
2016-03-05T02:52:32.020Z,985.29
2016-03-05T02:53:31.991Z,985.29
2016-03-05T02:54:31.978Z,985.3
2016-03-05T02:55:31.949Z,985.31
2016-03-05T02:56:32.093Z,985.28
2016-03-05T02:57:31.907Z,985.24
2016-03-05T02:58:31.879Z,985.24
2016-03-05T02:59:31.866Z,985.24
2016-03-05T03:00:31.838Z,985.22
2016-03-05T03:01:31.809Z,985.22
2016-03-05T03:02:31.781Z,985.22
2016-03-05T03:03:31.767Z,985.22
2016-03-05T03:04:31.739Z,985.23
2016-03-05T03:05:31.710Z,985.28
2016-03-05T03:06:31.697Z,985.23
2016-03-05T03:07:31.670Z,985.28
2016-03-05T03:08:31.656Z,985.32
2016-03-05T03:09:31.628Z,985.3
2016-03-05T03:10:31.598Z,985.28
2016-03-05T03:11:31.570Z,985.27
2016-03-05T03:12:31.558Z,985.29
2016-03-05T03:13:31.529Z,985.24
2016-03-05T03:14:31.517Z,985.25
2016-03-05T03:15:31.487Z,985.25
2016-03-05T03:16:31.459Z,985.26
2016-03-05T03:17:31.446Z,985.27
2016-03-05T03:18:31.417Z,985.25
2016-03-05T03:19:31.388Z,985.23
2016-03-05T03:20:31.376Z,985.24
2016-03-05T03:21:31.348Z,985.22
2016-03-05T03:22:31.319Z,985.21
2016-03-05T03:23:31.306Z,985.18
2016-03-05T03:24:31.277Z,985.19
2016-03-05T03:25:31.249Z,985.2
2016-03-05T03:26:31.235Z,985.17
2016-03-05T03:27:31.207Z,985.17
2016-03-05T03:28:31.179Z,985.17
2016-03-05T03:29:31.166Z,985.2
2016-03-05T03:30:31.138Z,985.17
2016-03-05T03:31:31.109Z,985.14
2016-03-05T03:32:31.080Z,985.13
2016-03-05T03:33:31.067Z,985.15
2016-03-05T03:34:31.038Z,985.16
2016-03-05T03:35:31.026Z,985.14
2016-03-05T03:36:30.998Z,985.17
2016-03-05T03:37:30.968Z,985.17
2016-03-05T03:38:30.940Z,985.19
2016-03-05T03:39:30.926Z,985.23
2016-03-05T03:40:30.898Z,985.23
2016-03-05T03:41:30.870Z,985.25
2016-03-05T03:42:30.857Z,985.25
2016-03-05T03:43:30.829Z,985.27
2016-03-05T03:44:30.816Z,985.28
2016-03-05T03:45:30.803Z,985.29
2016-03-05T03:46:30.758Z,985.33
2016-03-05T03:47:30.745Z,985.27
2016-03-05T03:48:30.748Z,985.3
2016-03-05T03:49:30.688Z,985.36
2016-03-05T03:50:30.676Z,985.36
2016-03-05T03:51:30.663Z,985.34
2016-03-05T03:52:30.619Z,985.31
2016-03-05T03:53:30.605Z,985.23
2016-03-05T03:54:30.608Z,985.19
2016-03-05T03:55:30.548Z,985.23
2016-03-05T03:56:30.535Z,985.2
2016-03-05T03:57:30.507Z,985.21
2016-03-05T03:58:30.478Z,985.24
2016-03-05T03:59:30.450Z,985.2
2016-03-05T04:00:30.437Z,985.19
2016-03-05T04:01:30.408Z,985.16
2016-03-05T04:02:30.379Z,985.15
2016-03-05T04:03:30.366Z,985.12
2016-03-05T04:04:30.337Z,985.12
2016-03-05T04:05:30.310Z,985.11
2016-03-05T04:06:30.282Z,985.13
2016-03-05T04:07:30.268Z,985.14
2016-03-05T04:08:30.240Z,985.15
2016-03-05T04:09:30.226Z,985.14
2016-03-05T04:10:30.198Z,985.14
2016-03-05T04:11:30.170Z,985.18
2016-03-05T04:12:30.141Z,985.22
2016-03-05T04:13:30.129Z,985.23
2016-03-05T04:14:30.100Z,985.28
2016-03-05T04:15:30.087Z,985.29
2016-03-05T04:16:30.058Z,985.33
2016-03-05T04:17:30.028Z,985.39
2016-03-05T04:18:30.000Z,985.41
2016-03-05T04:19:29.989Z,985.41
2016-03-05T04:20:29.959Z,985.4
2016-03-05T04:21:29.931Z,985.37
2016-03-05T04:22:29.918Z,985.39
2016-03-05T04:23:29.889Z,985.41
2016-03-05T04:24:29.860Z,985.39
2016-03-05T04:25:29.832Z,985.39
2016-03-05T04:26:29.820Z,985.35
2016-03-05T04:27:29.791Z,985.31
2016-03-05T04:28:29.778Z,985.34
2016-03-05T04:29:29.749Z,985.41
2016-03-05T04:30:29.721Z,985.42
2016-03-05T04:31:29.707Z,985.45
2016-03-05T04:32:29.694Z,985.41
2016-03-05T04:33:29.650Z,985.35
2016-03-05T04:34:29.638Z,985.35
2016-03-05T04:35:29.610Z,985.37
2016-03-05T04:36:29.596Z,985.38
2016-03-05T04:37:29.568Z,985.38
2016-03-05T04:38:29.539Z,985.38
2016-03-05T04:39:29.510Z,985.42
2016-03-05T04:40:29.497Z,985.46
2016-03-05T04:41:29.468Z,985.53
2016-03-05T04:42:29.441Z,985.53
2016-03-05T04:43:29.412Z,985.52
2016-03-05T04:44:29.399Z,985.43
2016-03-05T04:45:29.370Z,985.41
2016-03-05T04:46:29.356Z,985.43
2016-03-05T04:47:29.328Z,985.43
2016-03-05T04:48:29.301Z,985.44
2016-03-05T04:49:29.287Z,985.48
2016-03-05T04:50:29.259Z,985.44
2016-03-05T04:51:29.245Z,985.48
2016-03-05T04:52:29.202Z,985.44
2016-03-05T04:53:29.188Z,985.47
2016-03-05T04:54:29.160Z,985.47
2016-03-05T04:55:29.147Z,985.43
2016-03-05T04:56:29.119Z,985.44
2016-03-05T04:57:29.091Z,985.45
2016-03-05T04:58:29.062Z,985.46
2016-03-05T04:59:29.033Z,985.45
2016-03-05T05:00:29.019Z,985.41
2016-03-05T05:01:28.991Z,985.43
2016-03-05T05:02:28.963Z,985.43
2016-03-05T05:03:28.950Z,985.41
2016-03-05T05:04:28.922Z,985.41
2016-03-05T05:05:28.893Z,985.44
2016-03-05T05:06:28.881Z,985.45
2016-03-05T05:07:28.852Z,985.45
2016-03-05T05:08:28.824Z,985.48
2016-03-05T05:09:28.794Z,985.46
2016-03-05T05:10:28.830Z,985.5
2016-03-05T05:11:28.754Z,985.51
2016-03-05T05:12:28.741Z,985.53
2016-03-05T05:13:28.713Z,985.55
2016-03-05T05:14:28.683Z,985.55
2016-03-05T05:15:28.655Z,985.54
2016-03-05T05:16:28.641Z,985.54
2016-03-05T05:17:28.613Z,985.51
2016-03-05T05:18:28.585Z,985.5
2016-03-05T05:19:28.572Z,985.49
2016-03-05T05:20:28.544Z,985.47
2016-03-05T05:21:28.515Z,985.45
2016-03-05T05:22:28.502Z,985.43
2016-03-05T05:23:28.473Z,985.39
2016-03-05T05:24:28.445Z,985.41
2016-03-05T05:25:28.431Z,985.39
2016-03-05T05:26:28.404Z,985.36
2016-03-05T05:27:28.391Z,985.37
2016-03-05T05:28:28.346Z,985.38
2016-03-05T05:29:28.349Z,985.35
2016-03-05T05:30:28.304Z,985.36
2016-03-05T05:31:28.292Z,985.36
2016-03-05T05:32:28.264Z,985.38
2016-03-05T05:33:28.234Z,985.37
2016-03-05T05:34:28.206Z,985.37
2016-03-05T05:35:28.192Z,985.34
2016-03-05T05:36:28.165Z,985.35
2016-03-05T05:37:28.136Z,985.32
2016-03-05T05:38:28.122Z,985.31
2016-03-05T05:39:28.094Z,985.29
2016-03-05T05:40:28.066Z,985.35
2016-03-05T05:41:28.053Z,985.33
2016-03-05T05:42:28.025Z,985.33
2016-03-05T05:43:27.996Z,985.35
2016-03-05T05:44:27.983Z,985.34
2016-03-05T05:45:27.970Z,985.38
2016-03-05T05:46:27.926Z,985.38
2016-03-05T05:47:27.944Z,985.37
2016-03-05T05:48:27.884Z,985.45
2016-03-05T05:49:27.856Z,985.45
2016-03-05T05:50:27.827Z,985.51
2016-03-05T05:51:27.815Z,985.5
2016-03-05T05:52:27.785Z,985.48
2016-03-05T05:53:27.757Z,985.48
2016-03-05T05:54:27.743Z,985.53
2016-03-05T05:55:27.716Z,985.47
2016-03-05T05:56:27.688Z,985.43
2016-03-05T05:57:27.674Z,985.44
2016-03-05T05:58:27.646Z,985.44
2016-03-05T05:59:27.617Z,985.45
2016-03-05T06:00:27.589Z,985.48
2016-03-05T06:01:27.576Z,985.54
2016-03-05T06:02:27.547Z,985.54
2016-03-05T06:03:27.519Z,985.58
2016-03-05T06:04:27.506Z,985.58
2016-03-05T06:05:27.478Z,985.58
2016-03-05T06:06:27.448Z,985.56
2016-03-05T06:07:27.436Z,985.59
2016-03-05T06:08:27.407Z,985.6
2016-03-05T06:09:27.378Z,985.6
2016-03-05T06:10:27.350Z,985.56
2016-03-05T06:11:27.337Z,985.58
2016-03-05T06:12:27.325Z,985.56
2016-03-05T06:13:27.295Z,985.58
2016-03-05T06:14:27.267Z,985.52
2016-03-05T06:15:27.238Z,985.47
2016-03-05T06:16:27.225Z,985.4
2016-03-05T06:17:27.196Z,985.38
2016-03-05T06:18:27.168Z,985.34
2016-03-05T06:19:27.141Z,985.36
2016-03-05T06:20:27.127Z,985.3
2016-03-05T06:21:27.099Z,985.29
2016-03-05T06:22:27.069Z,985.29
2016-03-05T06:23:27.056Z,985.29
2016-03-05T06:24:27.028Z,985.33
2016-03-05T06:25:26.999Z,985.35
2016-03-05T06:26:26.971Z,985.37
2016-03-05T06:27:26.958Z,985.35
2016-03-05T06:28:26.930Z,985.34
2016-03-05T06:29:26.901Z,985.32
2016-03-05T06:30:26.887Z,985.38
2016-03-05T06:31:26.859Z,985.43
2016-03-05T06:32:26.832Z,985.42
2016-03-05T06:33:26.803Z,985.39
2016-03-05T06:34:26.805Z,985.34
2016-03-05T06:35:26.762Z,985.32
2016-03-05T06:36:26.732Z,985.26
2016-03-05T06:37:26.719Z,985.25
2016-03-05T06:38:26.722Z,985.26
2016-03-05T06:39:26.662Z,985.22
2016-03-05T06:40:26.650Z,985.21
2016-03-05T06:41:26.621Z,985.25
2016-03-05T06:42:26.592Z,985.23
2016-03-05T06:43:26.580Z,985.28
2016-03-05T06:44:26.660Z,985.28
2016-03-05T06:45:26.522Z,985.28
2016-03-05T06:46:26.493Z,985.3
2016-03-05T06:47:26.480Z,985.34
2016-03-05T06:48:26.453Z,985.31
2016-03-05T06:49:26.424Z,985.37
2016-03-05T06:50:26.411Z,985.43
2016-03-05T06:51:26.382Z,985.46
2016-03-05T06:52:26.354Z,985.52
2016-03-05T06:53:26.371Z,985.55
2016-03-05T06:54:26.312Z,985.6
2016-03-05T06:55:26.283Z,985.64
2016-03-05T06:56:26.271Z,985.67
2016-03-05T06:57:26.243Z,985.71
2016-03-05T06:58:26.229Z,985.72
2016-03-05T06:59:26.185Z,985.7
2016-03-05T07:00:26.171Z,985.72
2016-03-05T07:01:26.143Z,985.73
2016-03-05T07:02:26.115Z,985.72
2016-03-05T07:03:26.101Z,985.7
2016-03-05T07:04:26.074Z,985.66
2016-03-05T07:05:26.060Z,985.66
2016-03-05T07:06:26.032Z,985.74
2016-03-05T07:07:26.003Z,985.75
2016-03-05T07:08:25.975Z,985.77
2016-03-05T07:09:25.977Z,985.79
2016-03-05T07:10:25.933Z,985.81
2016-03-05T07:11:25.920Z,985.82
2016-03-05T07:12:25.892Z,985.78
2016-03-05T07:13:25.863Z,985.8
2016-03-05T07:14:25.850Z,985.8
2016-03-05T07:15:25.805Z,985.81
2016-03-05T07:16:25.793Z,985.8
2016-03-05T07:17:25.764Z,985.84
2016-03-05T07:18:25.736Z,985.81
2016-03-05T07:19:25.723Z,985.82
2016-03-05T07:20:25.695Z,985.83
2016-03-05T07:21:25.666Z,985.79
2016-03-05T07:22:25.637Z,985.76
2016-03-05T07:23:25.624Z,985.77
2016-03-05T07:24:25.596Z,985.76
2016-03-05T07:25:25.568Z,985.75
2016-03-05T07:26:25.554Z,985.79
2016-03-05T07:27:25.526Z,985.79
2016-03-05T07:28:25.497Z,985.78
2016-03-05T07:29:25.485Z,985.85
2016-03-05T07:30:25.456Z,985.85
2016-03-05T07:31:25.427Z,985.85
2016-03-05T07:32:25.414Z,985.82
2016-03-05T07:33:25.386Z,985.77
2016-03-05T07:34:25.357Z,985.79
2016-03-05T07:35:25.328Z,985.78
2016-03-05T07:36:25.300Z,985.76
2016-03-05T07:37:25.287Z,985.81
2016-03-05T07:38:25.258Z,985.82
2016-03-05T07:39:25.245Z,985.82
2016-03-05T07:40:25.217Z,985.82
2016-03-05T07:41:25.376Z,985.81
2016-03-05T07:42:25.176Z,985.8
2016-03-05T07:43:25.147Z,985.78
2016-03-05T07:44:25.119Z,985.78
2016-03-05T07:45:25.121Z,985.8
2016-03-05T07:46:25.077Z,985.79
2016-03-05T07:47:25.048Z,985.79
2016-03-05T07:48:25.019Z,985.81
2016-03-05T07:49:25.008Z,985.79
2016-03-05T07:50:24.978Z,985.75
2016-03-05T07:51:24.966Z,985.74
2016-03-05T07:52:24.936Z,985.76
2016-03-05T07:53:24.908Z,985.77
2016-03-05T07:54:24.880Z,985.8
2016-03-05T07:55:24.866Z,985.83
2016-03-05T07:56:24.838Z,985.86
2016-03-05T07:57:24.810Z,985.84
2016-03-05T07:58:24.782Z,985.88
2016-03-05T07:59:24.768Z,985.88
2016-03-05T08:00:24.740Z,985.87
2016-03-05T08:01:24.710Z,985.94
2016-03-05T08:02:24.699Z,985.92
2016-03-05T08:03:24.670Z,985.99
2016-03-05T08:04:24.641Z,986.01
2016-03-05T08:05:24.644Z,986.04
2016-03-05T08:06:24.600Z,986.05
2016-03-05T08:07:24.571Z,986.05
2016-03-05T08:08:24.543Z,986.05
2016-03-05T08:09:24.530Z,986.05
2016-03-05T08:10:24.502Z,986.08
2016-03-05T08:11:24.473Z,986.07
2016-03-05T08:12:24.460Z,986.06
2016-03-05T08:13:24.432Z,986.04
2016-03-05T08:14:24.403Z,986.03
2016-03-05T08:15:24.390Z,986.05
2016-03-05T08:16:24.362Z,986.08
2016-03-05T08:17:24.334Z,986.09
2016-03-05T08:18:24.321Z,986.07
2016-03-05T08:19:24.292Z,986.06
2016-03-05T08:20:24.262Z,986.06
2016-03-05T08:21:24.234Z,986.07
2016-03-05T08:22:24.222Z,986.08
2016-03-05T08:23:24.193Z,986.02
2016-03-05T08:24:24.165Z,986.04
2016-03-05T08:25:24.151Z,986.04
2016-03-05T08:26:24.123Z,986.04
2016-03-05T08:27:24.095Z,986.07
2016-03-05T08:28:24.066Z,986.02
2016-03-05T08:29:24.053Z,986.06
2016-03-05T08:30:24.024Z,986.05
2016-03-05T08:31:23.996Z,986.06
2016-03-05T08:32:23.983Z,986.06
2016-03-05T08:33:23.969Z,986.08
2016-03-05T08:34:23.926Z,986.04
2016-03-05T08:35:23.913Z,986.01
2016-03-05T08:36:23.885Z,986.02
2016-03-05T08:37:23.855Z,986.03
2016-03-05T08:38:24.093Z,986.01
2016-03-05T08:39:23.814Z,986.03
2016-03-05T08:40:23.785Z,986.03
2016-03-05T08:41:23.757Z,986.09
2016-03-05T08:42:23.744Z,986.05
2016-03-05T08:43:23.716Z,986.04
2016-03-05T08:44:23.687Z,986.06
2016-03-05T08:45:23.674Z,986.05
2016-03-05T08:46:23.646Z,986.05
2016-03-05T08:47:23.617Z,986.1
2016-03-05T08:48:23.604Z,986.04
2016-03-05T08:49:23.575Z,986.07
2016-03-05T08:50:23.548Z,986.09
2016-03-05T08:51:23.518Z,986.11
2016-03-05T08:52:23.506Z,986.12
2016-03-05T08:53:23.476Z,986.14
2016-03-05T08:54:23.448Z,986.13
2016-03-05T08:55:23.436Z,986.15
2016-03-05T08:56:23.422Z,986.11
2016-03-05T08:57:23.378Z,986.12
2016-03-05T08:58:23.365Z,986.14
2016-03-05T08:59:23.337Z,986.16
2016-03-05T09:00:23.308Z,986.18
2016-03-05T09:01:23.295Z,986.19
2016-03-05T09:02:23.267Z,986.22
2016-03-05T09:03:23.239Z,986.21
2016-03-05T09:04:23.225Z,986.2
2016-03-05T09:05:23.212Z,986.25
2016-03-05T09:06:23.168Z,986.19
2016-03-05T09:07:23.155Z,986.21
2016-03-05T09:08:23.127Z,986.23
2016-03-05T09:09:23.099Z,986.22
2016-03-05T09:10:23.085Z,986.25
2016-03-05T09:11:23.057Z,986.27
2016-03-05T09:12:23.027Z,986.25
2016-03-05T09:13:22.999Z,986.26
2016-03-05T09:14:22.987Z,986.26
2016-03-05T09:15:22.958Z,986.26
2016-03-05T09:16:22.929Z,986.23
2016-03-05T09:17:22.916Z,986.21
2016-03-05T09:18:22.887Z,986.21
2016-03-05T09:19:22.859Z,986.18
2016-03-05T09:20:22.831Z,986.14
2016-03-05T09:21:22.818Z,986.14
2016-03-05T09:22:22.789Z,986.16
2016-03-05T09:23:22.776Z,986.17
2016-03-05T09:24:22.748Z,986.14
2016-03-05T09:25:22.719Z,986.14
2016-03-05T09:26:22.690Z,986.15
2016-03-05T09:27:22.666Z,986.2
2016-03-05T09:28:22.623Z,986.19
2016-03-05T09:29:22.579Z,986.17
2016-03-05T09:30:22.553Z,986.18
2016-03-05T09:31:22.509Z,986.19
2016-03-05T09:32:22.475Z,986.2
2016-03-05T09:33:22.457Z,986.21
2016-03-05T09:34:22.423Z,986.23
2016-03-05T09:35:22.390Z,986.17
2016-03-05T09:36:22.372Z,986.19
2016-03-05T09:37:22.341Z,986.18
2016-03-05T09:38:22.311Z,986.2
2016-03-05T09:39:22.296Z,986.22
2016-03-05T09:40:22.265Z,986.25
2016-03-05T09:41:22.235Z,986.27
2016-03-05T09:42:22.206Z,986.29
2016-03-05T09:43:22.193Z,986.29
2016-03-05T09:44:22.164Z,986.33
2016-03-05T09:45:22.150Z,986.28
2016-03-05T09:46:22.122Z,986.32
2016-03-05T09:47:22.093Z,986.31
2016-03-05T09:48:22.063Z,986.3
2016-03-05T09:49:22.050Z,986.36
2016-03-05T09:50:22.020Z,986.36
2016-03-05T09:51:21.992Z,986.36
2016-03-05T09:52:21.980Z,986.37
2016-03-05T09:53:21.950Z,986.37
2016-03-05T09:54:21.922Z,986.41
2016-03-05T09:55:21.909Z,986.41
2016-03-05T09:56:21.881Z,986.45
2016-03-05T09:57:21.883Z,986.44
2016-03-05T09:58:21.839Z,986.48
2016-03-05T09:59:21.811Z,986.51
2016-03-05T10:00:21.783Z,986.52
2016-03-05T10:01:21.754Z,986.54
2016-03-05T10:02:21.740Z,986.52
2016-03-05T10:03:21.712Z,986.52
2016-03-05T10:04:21.699Z,986.53
2016-03-05T10:05:21.671Z,986.52
2016-03-05T10:06:21.643Z,986.47
2016-03-05T10:07:21.629Z,986.44
2016-03-05T10:08:21.601Z,986.44
2016-03-05T10:09:21.571Z,986.43
2016-03-05T10:10:21.543Z,986.41
2016-03-05T10:11:21.530Z,986.37
2016-03-05T10:12:21.502Z,986.37
2016-03-05T10:13:21.473Z,986.35
2016-03-05T10:14:21.460Z,986.35
2016-03-05T10:15:21.448Z,986.3
2016-03-05T10:16:21.420Z,986.3
2016-03-05T10:17:21.390Z,986.32
2016-03-05T10:18:21.361Z,986.3
2016-03-05T10:19:21.348Z,986.3
2016-03-05T10:20:21.320Z,986.33
2016-03-05T10:21:21.292Z,986.33
2016-03-05T10:22:21.279Z,986.31
2016-03-05T10:23:21.250Z,986.32
2016-03-05T10:24:21.237Z,986.32
2016-03-05T10:25:21.193Z,986.37
2016-03-05T10:26:21.180Z,986.38
2016-03-05T10:27:21.183Z,986.42
2016-03-05T10:28:21.123Z,986.37
2016-03-05T10:29:21.111Z,986.41
2016-03-05T10:30:21.097Z,986.46
2016-03-05T10:31:21.069Z,986.46
2016-03-05T10:32:21.040Z,986.46
2016-03-05T10:33:21.011Z,986.47
2016-03-05T10:34:20.998Z,986.46
2016-03-05T10:35:20.970Z,986.48
2016-03-05T10:36:20.941Z,986.47
2016-03-05T10:37:20.929Z,986.51
2016-03-05T10:38:20.900Z,986.47
2016-03-05T10:39:20.871Z,986.48
2016-03-05T10:40:20.859Z,986.46
2016-03-05T10:41:20.829Z,986.47
2016-03-05T10:42:20.801Z,986.44
2016-03-05T10:43:20.803Z,986.46
2016-03-05T10:44:20.760Z,986.49
2016-03-05T10:45:20.732Z,986.53
2016-03-05T10:46:20.718Z,986.54
2016-03-05T10:47:20.690Z,986.62
2016-03-05T10:48:20.661Z,986.64
2016-03-05T10:49:20.648Z,986.58
2016-03-05T10:50:20.620Z,986.58
2016-03-05T10:51:20.592Z,986.62
2016-03-05T10:52:20.578Z,986.64
2016-03-05T10:53:20.550Z,986.66
2016-03-05T10:54:20.537Z,986.65
2016-03-05T10:55:20.508Z,986.68
2016-03-05T10:56:20.495Z,986.72
2016-03-05T10:57:20.450Z,986.69
2016-03-05T10:58:20.439Z,986.69
2016-03-05T10:59:20.440Z,986.71
2016-03-05T11:00:20.381Z,986.74
2016-03-05T11:01:20.368Z,986.73
2016-03-05T11:02:20.339Z,986.74
2016-03-05T11:03:20.326Z,986.73
2016-03-05T11:04:20.407Z,986.75
2016-03-05T11:05:20.269Z,986.78
2016-03-05T11:06:20.241Z,986.78
2016-03-05T11:07:20.227Z,986.8
2016-03-05T11:08:20.200Z,986.81
2016-03-05T11:09:20.187Z,986.81
2016-03-05T11:10:20.157Z,986.85
2016-03-05T11:11:20.129Z,986.84
2016-03-05T11:12:20.115Z,986.83
2016-03-05T11:13:20.088Z,986.84
2016-03-05T11:14:20.059Z,986.86
2016-03-05T11:15:20.062Z,986.85
2016-03-05T11:16:20.018Z,986.85
2016-03-05T11:17:20.004Z,986.83
2016-03-05T11:18:19.976Z,986.8
2016-03-05T11:19:19.947Z,986.79
2016-03-05T11:20:19.934Z,986.81
2016-03-05T11:21:19.923Z,986.84
2016-03-05T11:22:19.878Z,986.84
2016-03-05T11:23:19.865Z,986.84
2016-03-05T11:24:19.836Z,986.84
2016-03-05T11:25:19.823Z,986.9
2016-03-05T11:26:19.794Z,986.9
2016-03-05T11:27:19.766Z,986.9
2016-03-05T11:28:19.752Z,986.92
2016-03-05T11:29:19.724Z,986.91
2016-03-05T11:30:19.697Z,986.91
2016-03-05T11:31:19.683Z,986.92
2016-03-05T11:32:19.670Z,986.89
2016-03-05T11:33:19.626Z,986.82
2016-03-05T11:34:19.613Z,986.82
2016-03-05T11:35:19.584Z,986.77
2016-03-05T11:36:19.555Z,986.75
2016-03-05T11:37:19.544Z,986.76
2016-03-05T11:38:19.515Z,986.73
2016-03-05T11:39:19.502Z,986.7
2016-03-05T11:40:19.488Z,986.72
2016-03-05T11:41:19.444Z,986.74
2016-03-05T11:42:19.431Z,986.74
2016-03-05T11:43:19.418Z,986.79
2016-03-05T11:44:19.390Z,986.77
2016-03-05T11:45:19.362Z,986.77
2016-03-05T11:46:19.349Z,986.79
2016-03-05T11:47:19.320Z,986.75
2016-03-05T11:48:19.292Z,986.78
2016-03-05T11:49:19.262Z,986.8
2016-03-05T11:50:19.251Z,986.79
2016-03-05T11:51:19.220Z,986.81
2016-03-05T11:52:19.209Z,986.8
2016-03-05T11:53:19.180Z,986.76
2016-03-05T11:54:19.167Z,986.81
2016-03-05T11:55:19.138Z,986.77
2016-03-05T11:56:19.109Z,986.76
2016-03-05T11:57:19.081Z,986.72
2016-03-05T11:58:19.068Z,986.69
2016-03-05T11:59:19.040Z,986.66
2016-03-05T12:00:19.027Z,986.63
2016-03-05T12:01:18.998Z,986.61
2016-03-05T12:02:18.969Z,986.6
2016-03-05T12:03:18.957Z,986.61
2016-03-05T12:04:18.928Z,986.6
2016-03-05T12:05:18.899Z,986.56
2016-03-05T12:06:18.887Z,986.56
2016-03-05T12:07:18.858Z,986.56
2016-03-05T12:08:18.830Z,986.52
2016-03-05T12:09:18.817Z,986.59
2016-03-05T12:10:18.788Z,986.56
2016-03-05T12:11:18.759Z,986.54
2016-03-05T12:12:18.746Z,986.56
2016-03-05T12:13:18.718Z,986.62
2016-03-05T12:14:18.689Z,986.6
2016-03-05T12:15:18.677Z,986.61
2016-03-05T12:16:18.648Z,986.62
2016-03-05T12:17:18.620Z,986.63
2016-03-05T12:18:18.668Z,986.61
2016-03-05T12:19:18.593Z,986.62
2016-03-05T12:20:18.549Z,986.6
2016-03-05T12:21:18.536Z,986.59
2016-03-05T12:22:18.509Z,986.56
2016-03-05T12:23:18.495Z,986.58
2016-03-05T12:24:18.467Z,986.58
2016-03-05T12:25:18.438Z,986.57
2016-03-05T12:26:18.425Z,986.57
2016-03-05T12:27:18.396Z,986.58
2016-03-05T12:28:18.367Z,986.56
2016-03-05T12:29:18.355Z,986.58
2016-03-05T12:30:18.342Z,986.56